Impacts METAR Board
IDs:

KMEM - Memphis Intl, TN, US

Updated at: 0300 UTC 16 Aug 2018
Potential Impact None Slight Moderate High
Time 15/15Z 15/16Z 15/17Z 15/18Z 15/19Z 15/20Z 15/21Z 15/22Z 15/23Z 16/00Z 16/01Z 16/02Z 16/03Z
Temp85 88 88 90 91 93 93 90 89 88 86 85 85
Dewpt72 73 73 73 73 72 70 72 73 72 73 73 73
Altim30.03 30.03 30.04 30.02 30.00 30.00 29.99 29.97 29.96 29.96 29.96 29.97 29.99
VIS10 10 10 10 10 10 10 10 10 10 10 10 10
CIG-- -- 250 250 250 250 250 170 250 250 150 120 130
CoverSCTSCTBKNBKNBKNBKNBKNOVCOVCOVCBKNOVCOVC
FltCatVFRVFRVFRVFRVFRVFRVFRVFRVFRVFRVFRVFRVFR
WX-------------------------RA
WDir220240230240220220240230200210210190180
WSpd8 11 13 11 12 14 15 9 10 6 4 4 5
WGst-- 20 21 17 21 18 22 16 -- -- -- -- --
Raw hourly METARs
KMEM 151454Z 22008KT 10SM SCT250 29/22 A3003 RMK AO2 SLP164 T02940222 51011
KMEM 151554Z 24011G20KT 10SM SCT250 31/23 A3003 RMK AO2 SLP164 T03110228
KMEM 151654Z 23013G21KT 10SM FEW035 SCT180 BKN250 31/23 A3004 RMK AO2 SLP165 T03110228
KMEM 151754Z 24011G17KT 10SM FEW039 SCT150 BKN250 32/23 A3002 RMK AO2 SLP161 T03220228 10322 20256 58003
KMEM 151854Z 22012G21KT 10SM FEW043 BKN250 33/23 A3000 RMK AO2 SLP154 T03280228
KMEM 151954Z 22014G18KT 10SM FEW049 BKN250 34/22 A3000 RMK AO2 SLP153 T03390222
KMEM 152054Z 24015G22KT 10SM SCT049 SCT150 BKN250 34/21 A2999 RMK AO2 SLP149 T03390211 56012
KMEM 152154Z 23009G16KT 10SM FEW047 BKN170 OVC250 32/22 A2997 RMK AO2 SLP143 T03220222
KMEM 152254Z 20010KT 10SM FEW046 SCT150 OVC250 32/23 A2996 RMK AO2 SLP141 T03170228
KMEM 152354Z 21006KT 10SM SCT170 OVC250 31/22 A2996 RMK AO2 SLP141 T03110222 10344 20311 56009
KMEM 160054Z 21004KT 10SM BKN150 BKN250 30/23 A2996 RMK AO2 SLP142 T03000228
KMEM 160154Z 19004KT 10SM BKN120 OVC250 29/23 A2997 RMK AO2 SLP144 T02940228
KMEM 160254Z 18005KT 10SM -RA FEW100 OVC130 29/23 A2999 RMK AO2 RAB47 SLP149 P0000 60000 T02940228 53009



Page loaded:  03:07 UTC  |   08:07 PM Pacific  |   09:07 PM Mountain  |   10:07 PM Central  |   11:07 PM Eastern

 

ADVISORIES

FORECASTS

FORECASTS

OBSERVATIONS

USER TOOLS

ABOUT US